Time;durP1;ratioP1;P1;durP2;ratioP2;P2;SDS_P1;SDS_P2;PMS_P1;PMS_P2;Temp;Humidity;BMP_temperature;BMP_pressure;BME280_temperature;BME280_humidity;BME280_pressure;Samples;Min_cycle;Max_cycle;Signal;HPM_P1;HPM_P2
2022/08/15 00:00:54;;;;;;;12.47;8.45;;;;;;;21.01;100.00;99172.02;1786677;79;21134;-71
2022/08/15 00:03:31;;;;;;;11.78;8.18;;;;;;;20.99;100.00;99170.98;1795098;78;20979;-73
2022/08/15 00:06:03;;;;;;;10.48;7.65;;;;;;;20.95;100.00;99170.07;1767227;80;21074;-72
2022/08/15 00:08:31;;;;;;;9.38;7.80;;;;;;;20.97;100.00;99174.69;1791083;79;21018;-72
2022/08/15 00:11:07;;;;;;;10.30;8.05;;;;;;;20.98;100.00;99168.55;1787736;79;21671;-71
2022/08/15 00:13:34;;;;;;;9.03;7.93;;;;;;;20.96;100.00;99168.92;1790667;78;21015;-70
2022/08/15 00:16:01;;;;;;;12.28;8.05;;;;;;;20.95;100.00;99168.69;1813338;79;21749;-73
2022/08/15 00:18:30;;;;;;;8.83;7.92;;;;;;;20.98;100.00;99172.13;1797882;79;20991;-72
2022/08/15 00:20:56;;;;;;;15.00;8.25;;;;;;;20.99;100.00;99161.87;1805982;79;21056;-75
2022/08/15 00:23:26;;;;;;;11.95;7.97;;;;;;;20.98;100.00;99166.59;1811545;79;20959;-72
2022/08/15 00:25:59;;;;;;;10.45;7.58;;;;;;;20.97;100.00;99165.58;1800798;79;21553;-72
2022/08/15 00:28:27;;;;;;;11.85;7.45;;;;;;;21.00;100.00;99171.21;1803985;79;21034;-72
2022/08/15 00:30:54;;;;;;;9.10;7.58;;;;;;;21.01;100.00;99176.17;1796105;79;21082;-73
2022/08/15 00:33:21;;;;;;;10.45;8.60;;;;;;;21.00;100.00;99178.13;1809607;77;21416;-73
2022/08/15 00:35:49;;;;;;;13.78;7.87;;;;;;;20.97;100.00;99178.03;1791844;79;21090;-74
2022/08/15 00:38:20;;;;;;;10.60;7.92;;;;;;;20.95;100.00;99171.45;1783505;78;21078;-73
2022/08/15 00:43:37;;;;;;;11.08;8.08;;;;;;;20.98;100.00;99165.78;1800727;78;21046;-74
2022/08/15 00:46:06;;;;;;;9.20;8.05;;;;;;;20.92;100.00;99163.87;1788093;78;21572;-74
2022/08/15 00:48:43;;;;;;;10.60;8.05;;;;;;;20.92;100.00;99163.87;1795469;78;21034;-73
2022/08/15 00:51:45;;;;;;;10.28;7.70;;;;;;;20.91;100.00;99159.48;1796508;78;21003;-72
2022/08/15 00:54:23;;;;;;;8.53;7.72;;;;;;;20.85;100.00;99153.41;1789755;78;21002;-73
2022/08/15 00:57:00;;;;;;;11.38;8.13;;;;;;;20.81;100.00;99151.70;1805558;78;21120;-72
2022/08/15 00:59:30;;;;;;;11.55;8.75;;;;;;;20.80;100.00;99143.17;1785094;79;21014;-73
2022/08/15 01:01:59;;;;;;;10.13;7.87;;;;;;;20.77;100.00;99145.27;1781156;78;21486;-73
2022/08/15 01:04:26;;;;;;;15.83;8.35;;;;;;;20.76;100.00;99145.06;1782037;79;21847;-73
2022/08/15 01:06:52;;;;;;;12.35;8.03;;;;;;;20.75;100.00;99139.30;1812407;78;21504;-73
2022/08/15 01:09:19;;;;;;;15.25;8.18;;;;;;;20.76;100.00;99133.39;1803503;79;21057;-73
2022/08/15 01:11:54;;;;;;;13.10;7.90;;;;;;;20.74;100.00;99137.10;1741450;81;21050;-75
2022/08/15 01:14:22;;;;;;;11.53;7.70;;;;;;;20.74;100.00;99139.06;1768520;80;21034;-75
2022/08/15 01:16:49;;;;;;;11.78;8.03;;;;;;;20.76;100.00;99135.38;1766044;78;21114;-73
2022/08/15 01:19:20;;;;;;;9.38;7.70;;;;;;;20.74;100.00;99130.77;1772988;78;21470;-75
2022/08/15 01:21:54;;;;;;;13.40;8.00;;;;;;;20.70;100.00;99127.09;1766453;80;21066;-74
2022/08/15 01:24:37;;;;;;;10.60;8.00;;;;;;;20.72;100.00;99130.33;1764332;80;21030;-75
2022/08/15 01:27:04;;;;;;;11.10;8.10;;;;;;;20.71;100.00;99131.47;1772123;80;21612;-75
2022/08/15 01:29:30;;;;;;;9.00;7.53;;;;;;;20.63;100.00;99129.08;1793307;80;21097;-75
2022/08/15 01:31:57;;;;;;;11.18;7.53;;;;;;;20.62;100.00;99133.00;1770615;80;21589;-74
2022/08/15 01:34:23;;;;;;;15.32;7.58;;;;;;;20.63;100.00;99129.66;1770576;80;21026;-73
2022/08/15 01:36:51;;;;;;;13.18;8.20;;;;;;;20.62;100.00;99129.42;1769811;80;21066;-74
2022/08/15 01:39:37;;;;;;;10.98;7.75;;;;;;;20.59;100.00;99137.85;1752292;80;20979;-75
2022/08/15 01:42:13;;;;;;;11.60;7.65;;;;;;;20.55;100.00;99131.98;1783592;80;21063;-73
2022/08/15 01:44:53;;;;;;;14.10;7.90;;;;;;;20.56;100.00;99126.69;1774148;80;20963;-77
2022/08/15 01:47:28;;;;;;;12.78;8.20;;;;;;;20.58;100.00;99133.47;1774585;80;21031;-72
2022/08/15 01:50:21;;;;;;;12.15;8.30;;;;;;;20.61;100.00;99134.75;1776794;80;20991;-73
2022/08/15 01:52:54;;;;;;;10.72;7.42;;;;;;;20.61;100.00;99128.64;1787937;80;21007;-73
2022/08/15 01:55:29;;;;;;;8.43;7.55;;;;;;;20.67;100.00;99125.84;1785022;80;21062;-72
2022/08/15 01:57:55;;;;;;;11.80;7.80;;;;;;;20.70;100.00;99127.90;1754938;80;20979;-72
2022/08/15 02:00:22;;;;;;;10.03;7.90;;;;;;;20.70;100.00;99131.23;1785265;80;21035;-71
2022/08/15 02:02:50;;;;;;;11.97;7.65;;;;;;;20.73;100.00;99120.27;1787578;80;20995;-73
2022/08/15 02:05:17;;;;;;;12.55;7.53;;;;;;;20.75;100.00;99124.89;1767346;80;21141;-75
2022/08/15 02:07:43;;;;;;;9.55;7.53;;;;;;;20.75;100.00;99119.36;1783718;80;21030;-76
2022/08/15 02:10:11;;;;;;;10.03;7.42;;;;;;;20.72;100.00;99113.73;1788750;78;20983;-74
2022/08/15 02:12:40;;;;;;;11.75;7.60;;;;;;;20.73;100.00;99111.17;1782308;79;21079;-76
2022/08/15 02:15:13;;;;;;;9.85;7.28;;;;;;;20.73;100.00;99111.17;1789113;78;20983;-74
2022/08/15 02:17:41;;;;;;;10.03;7.72;;;;;;;20.70;100.00;99111.88;1797667;79;21044;-73
2022/08/15 02:20:10;;;;;;;8.33;7.28;;;;;;;20.71;100.00;99119.84;1780031;78;20999;-75
2022/08/15 02:22:36;;;;;;;9.03;7.67;;;;;;;20.61;100.00;99109.29;1773907;78;21003;-75
2022/08/15 02:25:05;;;;;;;8.15;7.12;;;;;;;20.66;100.00;99122.84;1781757;79;21472;-74
2022/08/15 02:27:33;;;;;;;12.05;8.15;;;;;;;20.68;100.00;99119.73;1774350;78;21027;-75
2022/08/15 02:30:02;;;;;;;11.30;7.60;;;;;;;20.67;100.00;99113.97;1781783;79;20980;-74
2022/08/15 02:32:29;;;;;;;8.35;6.87;;;;;;;20.67;100.00;99125.03;1771952;80;20999;-74
2022/08/15 02:34:56;;;;;;;8.63;7.17;;;;;;;20.68;100.00;99123.89;1786326;79;21261;-73
2022/08/15 02:37:22;;;;;;;14.40;7.70;;;;;;;20.68;100.00;99124.70;1775959;78;20991;-75
2022/08/15 02:39:50;;;;;;;10.88;7.22;;;;;;;20.66;100.00;99119.27;1763328;79;21505;-73
2022/08/15 02:42:17;;;;;;;8.98;7.35;;;;;;;20.64;100.00;99120.22;1772431;80;21058;-74
2022/08/15 02:44:43;;;;;;;8.98;7.08;;;;;;;20.66;100.00;99120.65;1778170;78;21010;-73
2022/08/15 02:47:14;;;;;;;9.95;7.33;;;;;;;20.66;100.00;99116.50;1778626;78;21058;-75
2022/08/15 02:49:41;;;;;;;10.68;7.50;;;;;;;20.62;100.00;99120.55;1740736;80;21062;-73
2022/08/15 02:52:07;;;;;;;11.30;7.35;;;;;;;20.59;100.00;99124.60;1795806;79;21105;-75
2022/08/15 02:54:35;;;;;;;8.63;7.03;;;;;;;20.59;100.00;99121.84;1771498;79;20953;-75
2022/08/15 02:57:02;;;;;;;11.75;7.65;;;;;;;20.59;100.00;99122.64;1774251;78;21356;-72
2022/08/15 02:59:29;;;;;;;9.68;7.40;;;;;;;20.59;100.00;99122.64;1764360;80;21066;-72
2022/08/15 03:01:57;;;;;;;10.63;7.75;;;;;;;20.58;100.00;99123.80;1821017;77;21035;-76
2022/08/15 03:04:25;;;;;;;9.90;7.30;;;;;;;20.59;100.00;99124.03;1764994;80;21052;-74
2022/08/15 03:06:53;;;;;;;8.70;7.67;;;;;;;20.62;100.00;99116.98;1780443;79;21593;-76
2022/08/15 03:09:21;;;;;;;10.25;7.20;;;;;;;20.59;100.00;99112.97;1763824;78;21026;-74
2022/08/15 03:11:52;;;;;;;9.18;7.40;;;;;;;20.55;100.00;99116.78;1747531;79;21054;-74
2022/08/15 03:14:20;;;;;;;11.80;7.22;;;;;;;20.56;100.00;99112.30;1792034;79;20994;-73
2022/08/15 03:16:49;;;;;;;9.55;7.67;;;;;;;20.58;100.00;99112.73;1772454;79;21027;-72
2022/08/15 03:19:21;;;;;;;11.25;7.40;;;;;;;20.60;100.00;99106.86;1751599;79;20963;-73
2022/08/15 03:21:48;;;;;;;8.70;7.17;;;;;;;20.58;100.00;99102.28;1761879;79;21496;-72
2022/08/15 03:25:50;;;;;;;9.38;7.47;;;;;;;20.67;100.00;99098.77;1853400;77;22882;-74
2022/08/15 03:28:23;;;;;;;10.55;7.40;;;;;;;20.61;100.00;99111.25;1809724;78;21559;-72
2022/08/15 03:30:50;;;;;;;11.10;7.37;;;;;;;20.64;100.00;99103.63;1787486;79;21565;-72
2022/08/15 03:33:17;;;;;;;11.53;7.40;;;;;;;20.65;100.00;99101.87;1789501;79;21008;-75
2022/08/15 03:35:49;;;;;;;9.55;7.40;;;;;;;20.65;100.00;99099.70;1781201;79;21114;-71
2022/08/15 03:38:17;;;;;;;12.90;8.30;;;;;;;20.70;100.00;99107.73;1776201;79;21049;-74
2022/08/15 03:40:46;;;;;;;11.90;7.78;;;;;;;20.72;100.00;99104.05;1769824;79;21133;-74
2022/08/15 03:43:20;;;;;;;11.10;7.67;;;;;;;20.69;100.00;99106.14;1772860;79;21045;-74
2022/08/15 03:45:51;;;;;;;14.45;7.35;;;;;;;20.73;100.00;99105.64;1724519;81;21052;-76
2022/08/15 03:48:21;;;;;;;12.93;7.37;;;;;;;20.71;100.00;99103.81;1754203;79;21034;-75
2022/08/15 03:50:54;;;;;;;8.90;7.62;;;;;;;20.71;100.00;99107.96;1765289;79;21592;-71
2022/08/15 03:53:21;;;;;;;9.95;7.62;;;;;;;20.75;100.00;99108.30;1771634;79;21021;-74
2022/08/15 03:55:47;;;;;;;9.48;7.58;;;;;;;20.73;100.00;99107.83;1757485;79;21042;-72
2022/08/15 03:58:14;;;;;;;9.88;7.55;;;;;;;20.75;100.00;99115.20;1764569;79;21022;-75
2022/08/15 04:00:46;;;;;;;10.20;7.92;;;;;;;20.78;100.00;99113.69;1740351;79;21022;-74
2022/08/15 04:03:20;;;;;;;10.32;8.33;;;;;;;20.80;100.00;99112.74;1785264;79;20986;-72
2022/08/15 04:05:50;;;;;;;10.32;7.55;;;;;;;20.79;100.00;99111.97;1788445;78;21049;-74
2022/08/15 04:08:19;;;;;;;11.90;7.80;;;;;;;20.80;100.00;99116.89;1744695;81;21038;-73
2022/08/15 04:10:50;;;;;;;11.88;7.45;;;;;;;20.84;100.00;99114.45;1771287;80;21052;-74
2022/08/15 04:13:20;;;;;;;11.48;7.72;;;;;;;20.81;100.00;99113.78;1749941;81;21476;-73
2022/08/15 04:15:47;;;;;;;10.03;6.90;;;;;;;20.83;100.00;99118.37;1777569;79;21041;-71
2022/08/15 04:18:13;;;;;;;12.00;7.47;;;;;;;20.85;100.00;99114.69;1772877;79;21442;-74
2022/08/15 04:20:40;;;;;;;11.10;7.70;;;;;;;20.87;100.00;99114.31;1773590;78;21058;-72
2022/08/15 04:23:07;;;;;;;12.73;8.05;;;;;;;20.85;100.00;99110.54;1762171;79;21010;-72
2022/08/15 04:25:38;;;;;;;13.20;7.95;;;;;;;20.89;100.00;99121.70;1767790;80;21121;-74
2022/08/15 04:28:04;;;;;;;9.78;8.03;;;;;;;20.91;100.00;99113.84;1735505;80;21002;-74
2022/08/15 04:30:35;;;;;;;10.32;7.30;;;;;;;20.89;100.00;99114.78;1759556;80;21047;-73
2022/08/15 04:33:21;;;;;;;10.70;7.80;;;;;;;20.92;100.00;99118.80;1760474;80;20971;-71
2022/08/15 04:35:52;;;;;;;10.10;8.10;;;;;;;20.94;100.00;99119.26;1766882;80;21608;-71
2022/08/15 04:38:19;;;;;;;12.07;7.53;;;;;;;20.92;100.00;99125.13;1759001;80;21406;-71
2022/08/15 04:40:46;;;;;;;12.50;8.30;;;;;;;20.91;100.00;99129.05;1762324;80;21078;-74
2022/08/15 04:43:14;;;;;;;8.90;7.62;;;;;;;20.94;100.00;99128.34;1763849;80;21459;-74
2022/08/15 04:45:41;;;;;;;10.43;8.10;;;;;;;20.95;100.00;99118.89;1759374;80;21125;-74
2022/08/15 04:48:08;;;;;;;9.63;7.55;;;;;;;20.97;100.00;99123.50;1776291;80;21054;-74
2022/08/15 04:50:38;;;;;;;9.43;7.65;;;;;;;21.00;100.00;99107.57;1758027;81;21054;-71
2022/08/15 04:53:11;;;;;;;13.45;8.03;;;;;;;21.01;100.00;99110.54;1754725;81;21449;-73
2022/08/15 04:55:36;;;;;;;11.35;7.47;;;;;;;21.00;100.00;99114.48;1756718;80;21668;-73
2022/08/15 04:58:03;;;;;;;14.03;7.35;;;;;;;21.04;100.00;99109.05;1768197;80;20967;-73
2022/08/15 05:00:31;;;;;;;10.60;7.92;;;;;;;21.06;100.00;99105.33;1771570;80;21039;-72
2022/08/15 05:03:18;;;;;;;9.55;7.65;;;;;;;21.05;100.00;99105.91;1758116;80;20995;-73
2022/08/15 05:05:51;;;;;;;9.28;7.67;;;;;;;21.02;100.00;99103.05;1764530;80;21098;-73
2022/08/15 05:08:20;;;;;;;10.28;7.92;;;;;;;21.10;100.00;99106.23;1761056;80;21489;-72
2022/08/15 05:10:54;;;;;;;13.03;8.30;;;;;;;21.14;100.00;99103.01;1759094;80;21070;-73
2022/08/15 05:13:25;;;;;;;12.68;8.10;;;;;;;21.19;100.00;99099.95;1750999;80;20994;-71
2022/08/15 05:15:51;;;;;;;11.60;7.80;;;;;;;21.19;100.00;99094.42;1746213;80;21134;-74
2022/08/15 05:18:18;;;;;;;11.33;7.05;;;;;;;21.22;100.00;99097.88;1755825;80;21425;-73
2022/08/15 05:20:45;;;;;;;8.90;7.90;;;;;;;21.26;100.00;99087.68;1751054;80;21640;-72
2022/08/15 05:23:14;;;;;;;11.33;8.58;;;;;;;21.26;100.00;99098.17;1752504;81;21041;-70
2022/08/15 05:25:51;;;;;;;;;;;;;;;21.26;100.00;99088.48;1743084;80;21573;-72
2022/08/15 05:28:19;;;;;;;8.80;7.50;;;;;;;21.29;100.00;99097.45;1756095;80;20122;-74
2022/08/15 05:30:45;;;;;;;11.85;7.97;;;;;;;21.27;100.00;99085.14;1772627;80;21062;-73
2022/08/15 05:33:16;;;;;;;9.88;8.15;;;;;;;21.26;100.00;99084.33;1764090;80;21023;-72
2022/08/15 05:35:47;;;;;;;9.05;7.83;;;;;;;21.32;100.00;99084.31;1749032;80;21029;-71
2022/08/15 05:38:23;;;;;;;9.50;8.18;;;;;;;21.43;100.00;99079.61;1723640;82;20975;-72
2022/08/15 05:41:02;;;;;;;;;;;;;;;21.44;100.00;99080.61;1735861;81;21086;-73
2022/08/15 05:43:52;;;;;;;17.02;8.18;;;;;;;21.55;100.00;99076.13;1699354;82;20150;-72
2022/08/15 05:46:47;;;;;;;9.45;7.37;;;;;;;21.55;100.00;99083.63;1749011;81;21054;-74
2022/08/15 05:49:45;;;;;;;11.60;7.62;;;;;;;21.66;100.00;99074.99;1747430;80;21054;-73
2022/08/15 05:52:55;;;;;;;16.82;8.00;;;;;;;21.81;100.00;99072.77;1758639;80;21097;-74
2022/08/15 05:55:40;;;;;;;11.85;7.78;;;;;;;21.90;100.00;99076.16;1757304;80;21137;-74
2022/08/15 05:58:36;;;;;;;10.85;7.03;;;;;;;22.04;100.00;99070.12;1761855;80;21477;-73
2022/08/15 06:01:18;;;;;;;11.45;7.60;;;;;;;22.23;100.00;99070.14;1758074;80;21096;-73
2022/08/15 06:04:13;;;;;;;8.90;8.00;;;;;;;22.35;100.00;99067.23;1761868;80;21326;-73
2022/08/15 06:06:41;;;;;;;9.28;7.20;;;;;;;22.44;100.00;99071.14;1751298;80;21129;-72
2022/08/15 06:09:28;;;;;;;12.13;8.03;;;;;;;22.54;100.00;99063.61;1755140;80;20998;-73
2022/08/15 06:11:56;;;;;;;9.50;7.85;;;;;;;22.57;100.00;99058.72;1779436;80;21062;-72
2022/08/15 06:14:31;;;;;;;10.13;7.55;;;;;;;22.59;100.00;99060.55;1731506;81;21434;-73
2022/08/15 06:17:06;;;;;;;10.32;7.30;;;;;;;22.60;100.00;99063.55;1760380;80;21099;-73
2022/08/15 06:19:36;;;;;;;10.38;7.15;;;;;;;22.60;100.00;99063.55;1752264;80;21070;-73
2022/08/15 06:22:31;;;;;;;11.63;7.30;;;;;;;22.64;100.00;99057.46;1746018;80;21066;-74
2022/08/15 06:25:25;;;;;;;13.70;8.18;;;;;;;22.72;100.00;99057.85;1745653;80;21049;-72
2022/08/15 06:28:18;;;;;;;10.00;7.10;;;;;;;22.78;100.00;99053.02;1778669;79;21631;-73
2022/08/15 06:31:06;;;;;;;11.08;7.50;;;;;;;22.92;100.00;99037.80;1773381;78;21145;-73
2022/08/15 06:34:02;;;;;;;13.35;7.92;;;;;;;23.02;100.00;99032.44;1775259;79;20998;-72
2022/08/15 06:36:48;;;;;;;11.03;7.67;;;;;;;23.01;100.00;99035.57;1754875;81;21066;-71
2022/08/15 06:39:33;;;;;;;10.25;7.30;;;;;;;23.00;100.00;99050.03;1764408;79;21066;-75
2022/08/15 06:42:20;;;;;;;12.68;8.10;;;;;;;23.01;100.00;99048.06;1782702;79;21129;-71
2022/08/15 06:44:50;;;;;;;10.25;7.05;;;;;;;22.97;100.00;99050.77;1773737;79;21049;-73
2022/08/15 06:47:19;;;;;;;10.30;7.03;;;;;;;22.99;100.00;99043.48;1770028;79;21617;-72
2022/08/15 06:49:49;;;;;;;11.35;7.28;;;;;;;23.01;100.00;99039.16;1745300;79;21062;-73
2022/08/15 06:52:16;;;;;;;11.95;8.28;;;;;;;23.01;100.00;99041.92;1770193;79;21065;-75
2022/08/15 06:54:42;;;;;;;8.10;6.97;;;;;;;23.01;100.00;99053.03;1761467;79;21432;-72
2022/08/15 06:57:45;;;;;;;10.35;7.20;;;;;;;23.06;100.00;99054.09;1746212;80;21029;-72
2022/08/15 07:00:18;;;;;;;12.37;7.22;;;;;;;23.15;100.00;99059.41;1759082;79;21053;-72
2022/08/15 07:03:10;;;;;;;9.03;6.72;;;;;;;23.22;100.00;99070.63;1767383;79;21005;-73
2022/08/15 07:05:49;;;;;;;11.03;6.72;;;;;;;23.28;100.00;99068.55;1766087;79;21082;-74
2022/08/15 07:08:37;;;;;;;9.13;6.37;;;;;;;23.44;100.00;99064.86;1771985;79;20978;-73
2022/08/15 07:11:27;;;;;;;11.10;6.78;;;;;;;23.57;100.00;99058.72;1780284;79;21611;-72
2022/08/15 07:14:22;;;;;;;9.35;7.28;;;;;;;23.67;100.00;99064.21;1769911;79;21058;-76
2022/08/15 07:17:04;;;;;;;8.80;6.30;;;;;;;23.71;100.00;99066.45;1769704;79;21591;-75
2022/08/15 07:19:31;;;;;;;8.93;6.72;;;;;;;23.95;100.00;99066.00;1761421;79;21022;-74
2022/08/15 07:22:01;;;;;;;7.83;6.50;;;;;;;23.95;100.00;99066.00;1772949;79;21802;-74
2022/08/15 07:24:31;;;;;;;8.05;6.45;;;;;;;24.13;100.00;99068.46;1768691;81;21118;-74
2022/08/15 07:27:06;;;;;;;7.85;6.37;;;;;;;24.43;100.00;99065.66;1714756;79;21065;-76
2022/08/15 07:29:47;;;;;;;10.13;6.28;;;;;;;24.65;100.00;99063.33;1767697;79;21020;-72
2022/08/15 07:32:50;;;;;;;13.78;7.10;;;;;;;24.68;100.00;99061.17;1755735;80;21014;-75
2022/08/15 07:35:23;;;;;;;11.50;7.00;;;;;;;24.68;100.00;99061.17;1717324;79;21127;-73
2022/08/15 07:37:56;;;;;;;10.38;6.20;;;;;;;24.74;100.00;99051.88;1753917;79;20980;-73
2022/08/15 07:40:39;;;;;;;11.78;6.45;;;;;;;24.72;100.00;99057.03;1756821;80;21101;-72
2022/08/15 07:43:32;;;;;;;11.53;6.70;;;;;;;24.68;100.00;99062.56;1764233;79;21461;-74
2022/08/15 07:46:20;;;;;;;11.48;5.95;;;;;;;24.61;100.00;99073.63;1780183;79;21069;-73
2022/08/15 07:49:00;;;;;;;9.38;6.22;;;;;;;24.51;100.00;99079.06;1769742;79;21049;-73
2022/08/15 07:51:40;;;;;;;9.18;6.35;;;;;;;24.46;100.00;99084.38;1770205;79;21062;-71
2022/08/15 07:54:29;;;;;;;8.98;6.25;;;;;;;24.40;100.00;99086.48;1768315;79;21034;-73
2022/08/15 07:56:59;;;;;;;12.40;6.67;;;;;;;24.34;100.00;99080.44;1767726;80;21065;-74
2022/08/15 07:59:30;;;;;;;8.85;5.95;;;;;;;24.31;100.00;99072.05;1769496;79;20994;-71
2022/08/15 08:02:22;;;;;;;11.75;6.60;;;;;;;24.25;100.00;99068.81;1767986;79;21062;-71
2022/08/15 08:04:49;;;;;;;12.73;6.45;;;;;;;24.21;100.00;99067.97;1739998;79;21012;-72
2022/08/15 08:07:25;;;;;;;8.00;5.65;;;;;;;24.23;100.00;99063.62;1774234;79;21524;-74
2022/08/15 08:09:57;;;;;;;8.05;6.03;;;;;;;24.28;100.00;99073.03;1776117;79;21074;-70
2022/08/15 08:12:48;;;;;;;9.60;6.30;;;;;;;24.30;100.00;99064.32;1769797;79;21075;-74
2022/08/15 08:15:39;;;;;;;8.65;6.17;;;;;;;24.34;100.00;99068.53;1702130;81;21153;-76
2022/08/15 08:18:34;;;;;;;8.30;6.30;;;;;;;24.37;100.00;99064.98;1742613;79;21022;-74
2022/08/15 08:21:04;;;;;;;6.60;5.55;;;;;;;24.37;100.00;99064.98;1767068;80;21101;-74
2022/08/15 08:23:37;;;;;;;9.05;6.00;;;;;;;24.41;100.00;99058.88;1760073;79;20990;-74
2022/08/15 08:26:30;;;;;;;8.08;6.15;;;;;;;24.44;100.00;99060.31;1760224;79;21540;-73
2022/08/15 08:29:30;;;;;;;7.78;5.60;;;;;;;24.44;100.00;99060.31;1759406;80;20994;-72
2022/08/15 08:32:32;;;;;;;9.33;6.28;;;;;;;24.44;100.00;99060.31;1757129;80;21038;-75
2022/08/15 08:35:22;;;;;;;8.25;6.12;;;;;;;24.46;100.00;99072.44;1747323;80;20999;-74
2022/08/15 08:38:21;;;;;;;8.03;5.42;;;;;;;24.49;100.00;99079.43;1763597;80;21014;-74
2022/08/15 08:44:10;;;;;;;8.43;6.00;;;;;;;24.63;100.00;99080.98;1745095;80;21478;-73
2022/08/15 08:47:02;;;;;;;8.05;6.00;;;;;;;24.67;100.00;99078.23;1759354;80;21078;-73
2022/08/15 08:49:53;;;;;;;9.68;5.90;;;;;;;24.79;100.00;99052.94;1770032;80;20975;-75
2022/08/15 08:52:52;;;;;;;11.00;5.33;;;;;;;24.79;100.00;99052.94;1746609;80;21579;-74
2022/08/15 08:55:29;;;;;;;9.88;6.15;;;;;;;24.83;100.00;99043.23;1762376;80;21069;-72
2022/08/15 08:58:06;;;;;;;12.43;5.83;;;;;;;24.83;100.00;99042.67;1728000;81;20987;-75
2022/08/15 09:00:45;;;;;;;9.40;5.72;;;;;;;24.88;100.00;99033.95;1743971;81;21058;-74
2022/08/15 09:03:17;;;;;;;11.55;5.80;;;;;;;24.89;100.00;99042.52;1762559;80;21119;-73
2022/08/15 09:05:56;;;;;;;8.98;5.85;;;;;;;24.93;100.00;99054.49;1759099;80;21098;-74
2022/08/15 09:08:33;;;;;;;12.10;6.15;;;;;;;25.03;100.00;99044.62;1758910;80;21027;-74
2022/08/15 09:11:16;;;;;;;10.05;5.95;;;;;;;25.16;100.00;99048.13;1745374;80;21132;-75
2022/08/15 09:13:43;;;;;;;7.80;5.78;;;;;;;25.31;100.00;99035.70;1767903;80;21003;-75
2022/08/15 09:16:35;;;;;;;10.23;5.58;;;;;;;25.48;100.00;99039.20;1731511;80;21065;-75
2022/08/15 09:19:09;;;;;;;10.05;5.80;;;;;;;25.69;100.00;99044.95;1753977;80;21006;-75
2022/08/15 09:21:35;;;;;;;9.65;5.62;;;;;;;25.92;100.00;99043.30;1758273;80;21101;-70
2022/08/15 09:24:04;;;;;;;13.98;5.60;;;;;;;26.04;100.00;99037.40;1728940;81;21524;-73
2022/08/15 09:26:41;;;;;;;10.95;5.15;;;;;;;26.11;100.00;99041.61;1756268;80;21141;-76
2022/08/15 09:29:30;;;;;;;10.00;5.45;;;;;;;26.14;100.00;99036.05;1757257;81;21018;-75
2022/08/15 09:32:30;;;;;;;9.83;5.37;;;;;;;26.17;100.00;99046.45;1756305;81;21030;-76
2022/08/15 09:35:27;;;;;;;8.70;4.92;;;;;;;26.25;100.00;99043.69;1756286;81;20970;-72
2022/08/15 09:38:37;;;;;;;7.90;5.17;;;;;;;26.31;100.00;99053.27;1755232;80;20978;-73
2022/08/15 09:41:37;;;;;;;11.65;5.67;;;;;;;26.37;100.00;99060.06;1756865;80;21100;-76
2022/08/15 09:44:32;;;;;;;9.93;5.47;;;;;;;26.41;100.00;99055.30;1741561;81;21042;-74
2022/08/15 09:47:21;;;;;;;11.12;5.50;;;;;;;26.48;100.00;99046.95;1738602;81;21682;-73
2022/08/15 09:50:27;;;;;;;7.83;5.08;;;;;;;26.45;100.00;99026.81;1762834;80;20985;-73
2022/08/15 09:53:26;;;;;;;9.80;5.40;;;;;;;26.44;100.00;99035.77;1761045;80;21326;-75
2022/08/15 09:55:54;;;;;;;11.20;5.28;;;;;;;26.47;100.00;99028.59;1726421;81;21125;-77
2022/08/15 09:58:26;;;;;;;8.43;5.40;;;;;;;26.56;100.00;99028.44;1714059;83;21010;-76
2022/08/15 10:01:24;;;;;;;12.00;5.80;;;;;;;26.60;100.00;99034.83;1722582;82;21624;-76
2022/08/15 10:03:59;;;;;;;11.03;5.30;;;;;;;26.68;100.00;99037.02;1716642;81;21679;-76
2022/08/15 10:06:52;;;;;;;7.87;5.30;;;;;;;26.71;100.00;99039.05;1727563;81;21067;-77
2022/08/15 10:09:31;;;;;;;12.07;5.87;;;;;;;26.70;100.00;99034.64;1742976;81;21470;-72
2022/08/15 10:12:09;;;;;;;11.48;5.50;;;;;;;26.66;100.00;99034.64;1766794;80;21069;-73
2022/08/15 10:15:01;;;;;;;8.43;5.00;;;;;;;26.68;100.00;99033.63;1767450;80;21050;-73
2022/08/15 10:17:39;;;;;;;9.35;5.47;;;;;;;26.63;100.00;99020.08;1689112;82;21089;-76
2022/08/15 10:20:22;;;;;;;9.90;5.00;;;;;;;26.56;100.00;99022.86;1760636;80;21006;-72
2022/08/15 10:22:57;;;;;;;9.83;5.30;;;;;;;26.57;100.00;99026.45;1739375;82;21011;-74
2022/08/15 10:25:53;;;;;;;7.80;4.97;;;;;;;26.59;100.00;99025.45;1738815;81;21023;-76
2022/08/15 10:28:23;;;;;;;10.75;5.30;;;;;;;26.60;100.00;99028.45;1754782;80;21074;-75
2022/08/15 10:31:04;;;;;;;9.80;5.40;;;;;;;26.52;100.00;99011.48;1775744;79;21046;-72
2022/08/15 10:33:38;;;;;;;9.23;5.87;;;;;;;26.38;100.00;98999.69;1773955;80;21022;-75
2022/08/15 10:36:13;;;;;;;10.82;5.55;;;;;;;26.20;100.00;98994.05;1757411;79;21072;-77
2022/08/15 10:38:46;;;;;;;10.35;5.67;;;;;;;26.05;100.00;98992.37;1782726;79;21007;-74
2022/08/15 10:41:37;;;;;;;10.98;5.67;;;;;;;25.93;100.00;98988.55;1773901;79;21647;-73
2022/08/15 10:44:42;;;;;;;11.48;5.47;;;;;;;25.87;100.00;99007.41;1772768;81;21011;-76
2022/08/15 10:47:44;;;;;;;14.15;6.08;;;;;;;25.80;100.00;99019.92;1751000;79;21091;-75
2022/08/15 10:50:22;;;;;;;8.88;5.37;;;;;;;25.74;100.00;99013.34;1767691;79;21034;-74
2022/08/15 10:53:30;;;;;;;10.35;5.30;;;;;;;25.69;100.00;99008.72;1788241;80;21775;-74
2022/08/15 10:56:17;;;;;;;10.00;5.45;;;;;;;25.65;100.00;99017.65;1679163;84;21090;-72
2022/08/15 10:58:44;;;;;;;9.90;5.35;;;;;;;25.60;100.00;99019.42;1649778;86;21021;-73
2022/08/15 11:01:23;;;;;;;8.48;5.80;;;;;;;25.63;100.00;99025.61;1741650;81;21145;-73
2022/08/15 11:03:54;;;;;;;9.60;5.42;;;;;;;25.76;100.00;99025.48;1761580;81;20943;-71
2022/08/15 11:06:23;;;;;;;10.03;5.30;;;;;;;25.84;100.00;99018.76;1767551;80;21448;-73
2022/08/15 11:08:56;;;;;;;12.00;5.45;;;;;;;25.86;100.00;99015.59;1751562;80;21003;-73
2022/08/15 11:11:26;;;;;;;11.12;5.62;;;;;;;25.84;100.00;99002.03;1759606;80;21028;-76
2022/08/15 11:13:56;;;;;;;11.00;5.53;;;;;;;25.78;100.00;99002.21;1755746;80;21075;-72
2022/08/15 11:16:35;;;;;;;9.63;5.25;;;;;;;25.69;100.00;99020.67;1783125;79;21035;-74
2022/08/15 11:19:21;;;;;;;10.13;5.65;;;;;;;25.57;100.00;99014.05;1775049;80;21026;-74
2022/08/15 11:21:55;;;;;;;;;;;;;;;25.39;100.00;99028.41;1728998;82;21625;-71
2022/08/15 11:24:34;;;;;;;8.93;6.78;;;;;;;25.27;100.00;99031.50;1770358;79;20501;-72
2022/08/15 11:27:19;;;;;;;12.53;6.12;;;;;;;25.18;100.00;99033.23;1785525;79;21119;-72
2022/08/15 11:29:47;;;;;;;11.65;5.42;;;;;;;25.11;100.00;99054.06;1746114;80;21042;-73
2022/08/15 11:32:35;;;;;;;12.70;6.30;;;;;;;25.10;100.00;99054.44;1763295;80;21074;-74
2022/08/15 11:35:25;;;;;;;10.78;5.20;;;;;;;25.11;100.00;99063.01;1764422;80;21022;-72
2022/08/15 11:37:55;;;;;;;12.40;5.28;;;;;;;25.21;100.00;99067.86;1753474;80;21628;-70
2022/08/15 11:40:27;;;;;;;10.13;6.12;;;;;;;25.33;100.00;99064.77;1736564;80;21157;-71
2022/08/15 11:42:53;;;;;;;12.40;5.03;;;;;;;25.36;100.00;99068.78;1752923;80;21050;-71
2022/08/15 11:45:25;;;;;;;12.45;6.37;;;;;;;25.31;100.00;99054.61;1756796;80;21072;-72
2022/08/15 11:47:55;;;;;;;8.95;5.08;;;;;;;25.29;100.00;99050.63;1773113;80;20998;-71
2022/08/15 11:50:32;;;;;;;9.10;5.65;;;;;;;25.24;100.00;99053.16;1775115;80;21029;-70
2022/08/15 11:53:03;;;;;;;12.18;8.58;;;;;;;25.21;100.00;99054.74;1756246;80;21088;-71
2022/08/15 11:55:43;;;;;;;11.70;7.45;;;;;;;25.19;100.00;99063.26;1796500;78;21078;-70
2022/08/15 11:58:19;;;;;;;11.83;6.45;;;;;;;25.18;100.00;99051.92;1763205;80;21044;-70
2022/08/15 12:00:52;;;;;;;;;;;;;;;25.19;100.00;99047.34;1759584;80;21046;-69
2022/08/15 12:03:34;;;;;;;8.53;5.10;;;;;;;25.19;100.00;99050.72;1768286;80;20141;-70
2022/08/15 12:06:18;;;;;;;8.75;4.72;;;;;;;25.03;100.00;99041.26;1764022;80;21070;-73
2022/08/15 12:08:46;;;;;;;13.00;5.50;;;;;;;24.95;100.00;99038.19;1767501;80;20986;-69
2022/08/15 12:11:16;;;;;;;15.13;5.45;;;;;;;24.93;100.00;99028.63;1791085;78;21580;-71